Glens Falls, NY (12801)

5:17 PM EST on February 10, 2016 (GMT -0500)
Glens Falls, NY | | Change Station
CLOSE
Current Station
Personal Weather Station
Location: Glens Falls, NY
Elevation: 331 ft
Nearby Weather Stations

Elev 331 ft 43.31 °N, 73.64 °W | Updated 5 minutes ago

Overcast
Overcast
32.4 °F
Feels Like 29 °F
N
3.7
Wind Variable Wind from East

Today
High -- | Low -- °F
--% Chance of Precip.
Yesterday
High -- | Low -- °F
Precip. -- in
Pressure 29.60 in
Visibility 10.0 miles
Clouds Scattered Clouds 4900 ft
Overcast 9500 ft
Windchill 29 °F
Dew Point 26 °F
Humidity 76%
Rainfall 0.05 in
Snow Depth Not available.
7:00 AM 5:18 PM
Waxing Crescent, 7% visible
METAR KGFL 102153Z AUTO VRB06KT 10SM SCT049 OVC095 01/M06 A2957 RMK AO2 SLP024 T00111061
Pressure 29.60 in
Visibility 10.0 miles
Clouds Scattered Clouds 4900 ft
Overcast 9500 ft
Windchill 29 °F
Dew Point 26 °F
Humidity 76%
Rainfall 0.05 in
Snow Depth Not available.
7:00 AM 5:18 PM
Waxing Crescent, 7% visible
METAR KGFL 102153Z AUTO VRB06KT 10SM SCT049 OVC095 01/M06 A2957 RMK AO2 SLP024 T00111061

10-Day Weather Forecast

Almanac

Astronomy

Feb. 10, 2016 Rise Set
Actual Time
Civil Twilight
Nautical Twilight
Astronomical Twilight
Moon
Length of Visible Light
Length of Day
Tomorrow will be .
, % of the Moon is Illuminated

Today's Extremes

State Highs State Lows

Community

WunderPhotos

Upload Photos

1,891,956 photos uploaded!

WunderBlog® & News

Nearby

Air Quality

  Air Quality AQ Index Pollutant
Not available.

Snow Depth

Station Depth Elevation

Earthquake Activity

City Distance Mag. Time & Date
Minimum magnitude displayed is 2.5.

Coastal Water Temperatures

Place Temperature

Stations

Nearby Weather Stations

Station Location Temp. Windchill Dew Point Humidity Wind Precip. Elev Updated Type
                   

Watches & Warnings

There are currently no watches in effect.